TULLOCH (TUL)

Elevation: 515' · STANISLAUS R basin · Operator: US Bureau of Reclamation

Provisional data, subject to change.
Query executed Sunday at 2:08:14   clock

Select a sensor type for a plot of data.
Note: Reservoir Flows are daily averages.

Earlier

Date RES ELE    STORAGE    RES CHG    TOC STO    ABV TOC    OUTFLOW    INFLOW    EVAP    RIV REL    SPILL    DIS PWR   
 FEET   AF   AF   AF   AF   CFS   CFS   CFS   CFS   CFS   CFS  
04/25/2015 504.24 60028 426 62000 -1972 802 1023 6 0 0 802
04/26/2015 504.34 60143 115 62139 -1996 766 830 6 0 0 766
04/27/2015 504.51 60340 197 62278 -1938 729 836 8 0 0 729
04/28/2015 504.99 60895 555 62417 -1522 738 1033 15 0 0 738
04/29/2015 505.20 61142 247 62556 -1414 713 848 10 0 0 713
04/30/2015 505.28 61236 94 62694 -1458 839 899 13 0 0 839
05/01/2015 505.33 61295 59 62833 -1538 896 939 13 0 0 896
05/02/2015 504.58 60421 -874 62972 -2551 918 491 14 0 0 918
05/03/2015 504.16 59935 -- 63111 -3176 938 707 14 0 0 938
05/04/2015 503.81 59533 -402 63250 -3717 984 794 13 0 0 984
05/05/2015 505.54 61542 -- 63389 -1847 978 1999 8 0 0 978
05/06/2015 506.29 62429 887 63528 -1099 927 1384 10 0 0 927
05/07/2015 506.23 62358 -71 63667 -1309 907 885 14 0 0 907
05/08/2015 505.60 61613 -745 63806 -2193 872 498 2 0 0 872
05/09/2015 505.98 62059 446 63944 -1885 864 1092 3 0 0 864
05/10/2015 504.73 60595 -1464 64083 -3488 861 135 12 0 0 861
05/11/2015 505.69 61718 1123 64222 -2504 885 1464 13 0 0 885
05/12/2015 506.48 62656 938 64361 -1705 869 1355 13 0 0 869
05/13/2015 506.81 63050 394 64500 -1450 852 1060 9 0 0 852
05/14/2015 507.20 63519 469 64639 -1120 846 1091 9 0 0 846
05/15/2015 507.10 63398 -121 64778 -1380 901 847 7 0 0 901
05/16/2015 506.93 63193 -205 64917 -1724 860 765 8 0 0 860
05/17/2015 506.81 63050 -143 65056 -2006 901 846 17 0 0 901
05/18/2015 506.73 62955 -95 65194 -2239 929 893 12 0 0 929
05/19/2015 506.75 62979 24 65333 -2354 962 990 16 0 0 962
05/20/2015 506.72 62943 -36 65472 -2529 990 983 11 0 0 990
05/21/2015 507.03 63313 370 65611 -2298 1013 1212 12 0 0 1013
05/22/2015 507.19 63507 194 65750 -2243 1000 1104 6 0 0 1000
05/23/2015 -- -- -- 65889 -- -- -- -- -- -- --
05/24/2015 -- -- -- -- -- -- -- -- -- -- --

Later | Latest

Warning! This data is preliminary and subject to revision.

Show TUL Map | Plot TUL Data | 1 Month TUL Data | Real-Time TUL Data | TUL Info